Millhaven, Canada
Current Conditions -  °F | °C
As of 11:00 AM on Saturday 20 Dec 2014 (Local Time) from CYGK Reporting Station
Few Clouds Few Clouds  
Wind Chill: 14°   Ceiling: Unl
Heat Index: 21°   Visibility: 15mi
Dew Point: 14°   Wind: 6mph
Humidity: 74%   Direction: 20°NNE
Pressure: 30.32"   Gusts: NA
Location:  44.2°N, 76.75°W
Report Text: CYGK 201600Z 02005KT 15SM FEW020 FEW140 FEW240 M06/M10 A3032 RMK CF1AC1CI1 CF TR CI TR SLP272
Loading
Personal Weather Stations






























Interactive Weather Map New forecast layout! Learn more

10-Day Weather Forecast

Advertisements
Track Severe Weather on mobile